createdAt,value
2023-02-08T00:03:52.381Z,3.10
2023-02-08T00:08:49.177Z,3.06
2023-02-08T00:13:46.009Z,2.80
2023-02-08T00:18:42.783Z,2.87
2023-02-08T00:23:40.683Z,2.99
2023-02-08T00:28:37.431Z,3.09
2023-02-08T00:33:35.436Z,2.46
2023-02-08T00:38:32.316Z,2.42
2023-02-08T00:43:29.687Z,2.45
2023-02-08T00:48:26.379Z,2.60
2023-02-08T00:53:22.933Z,2.82
2023-02-08T00:58:19.557Z,2.27
2023-02-08T01:03:16.864Z,2.50
2023-02-08T01:08:14.566Z,2.55
2023-02-08T01:13:11.182Z,2.28
2023-02-08T01:18:07.804Z,1.97
2023-02-08T01:23:05.161Z,1.77
2023-02-08T01:28:02.921Z,2.02
2023-02-08T01:32:59.574Z,2.31
2023-02-08T01:37:58.045Z,2.48
2023-02-08T01:42:55.365Z,2.58
2023-02-08T01:47:57.611Z,2.68
2023-02-08T01:52:54.558Z,2.72
2023-02-08T01:57:55.983Z,2.82
2023-02-08T02:02:55.299Z,2.79
2023-02-08T02:07:53.570Z,2.63
2023-02-08T02:12:50.730Z,2.07
2023-02-08T02:17:47.589Z,1.87
2023-02-08T02:23:04.896Z,1.21
2023-02-08T02:28:21.189Z,0.71
2023-02-08T02:33:28.515Z,0.85
2023-02-08T02:38:32.848Z,0.75
2023-02-08T02:43:41.858Z,0.17
2023-02-08T02:48:42.327Z,0.57
2023-02-08T02:53:43.356Z,0.28
2023-02-08T02:58:40.832Z,0.77
2023-02-08T03:03:37.522Z,0.11
2023-02-08T03:09:04.092Z,0.47
2023-02-08T03:14:15.646Z,0.50
2023-02-08T03:19:17.624Z,0.67
2023-02-08T03:24:23.593Z,0.58
2023-02-08T03:29:26.638Z,0.51
2023-02-08T03:34:28.722Z,0.34
2023-02-08T03:39:27.338Z,0.62
2023-02-08T03:44:27.368Z,0.75
2023-02-08T03:49:27.219Z,0.41
2023-02-08T03:54:26.705Z,0.43
2023-02-08T03:59:26.128Z,0.30
2023-02-08T04:04:26.670Z,0.42
2023-02-08T04:09:23.407Z,0.72
2023-02-08T04:14:20.078Z,0.38
2023-02-08T04:19:17.504Z,0.02
2023-02-08T04:24:14.319Z,0.50
2023-02-08T04:29:11.225Z,0.16
2023-02-08T04:34:08.031Z,-0.02
2023-02-08T04:39:05.475Z,-0.12
2023-02-08T04:44:02.085Z,-0.05
2023-02-08T04:48:59.142Z,-0.27
2023-02-08T04:53:55.749Z,-0.46
2023-02-08T04:58:53.096Z,-0.09
2023-02-08T05:03:50.278Z,0.04
2023-02-08T05:08:47.077Z,-0.27
2023-02-08T05:13:43.718Z,-0.52
2023-02-08T05:18:41.161Z,-0.16
2023-02-08T05:23:38.256Z,-0.41
2023-02-08T05:28:35.015Z,-0.64
2023-02-08T05:33:31.822Z,-0.28
2023-02-08T05:38:29.059Z,-0.31
2023-02-08T05:43:25.950Z,-0.63
2023-02-08T05:48:22.834Z,-0.71
2023-02-08T05:53:19.487Z,-0.57
2023-02-08T05:58:17.661Z,-0.68
2023-02-08T06:03:14.416Z,-0.63
2023-02-08T06:08:11.237Z,-0.50
2023-02-08T06:13:08.229Z,-0.17
2023-02-08T06:18:05.801Z,-0.25
2023-02-08T06:23:02.831Z,-0.18
2023-02-08T06:27:59.700Z,-0.10
2023-02-08T06:32:56.849Z,-0.32
2023-02-08T06:37:54.332Z,-0.09
2023-02-08T06:42:51.255Z,-0.20
2023-02-08T06:47:48.182Z,-0.47
2023-02-08T06:52:47.065Z,-0.66
2023-02-08T06:57:45.916Z,-0.27
2023-02-08T07:02:46.858Z,-0.56
2023-02-08T07:07:43.854Z,-0.90
2023-02-08T07:12:43.328Z,-0.74
2023-02-08T07:17:40.903Z,-0.90
2023-02-08T07:22:37.711Z,-1.00
2023-02-08T07:34:03.132Z,-0.68
2023-02-08T07:44:54.225Z,-0.83
2023-02-08T07:50:53.551Z,-0.56
2023-02-08T08:01:59.832Z,-0.59
2023-02-08T08:07:06.824Z,-0.62
2023-02-08T08:12:17.878Z,-0.82
2023-02-08T08:24:16.904Z,-0.64
2023-02-08T08:30:18.915Z,-0.76
2023-02-08T08:36:05.335Z,-0.44
2023-02-08T09:00:10.173Z,-0.90
2023-02-08T09:05:21.397Z,-0.88
2023-02-08T09:11:07.650Z,-0.66
2023-02-08T09:16:16.981Z,-0.85
2023-02-08T09:21:35.510Z,-0.82
2023-02-08T09:26:38.663Z,-0.63
2023-02-08T09:32:30.054Z,-0.68
2023-02-08T09:38:02.176Z,-0.58
2023-02-08T09:43:04.159Z,-0.91
2023-02-08T09:48:07.596Z,-0.88
2023-02-08T09:53:08.258Z,-0.81
2023-02-08T09:58:17.742Z,-0.69
2023-02-08T10:03:21.355Z,-0.82
2023-02-08T10:08:18.270Z,-0.58
2023-02-08T10:13:40.398Z,-0.79
2023-02-08T10:18:44.226Z,-1.03
2023-02-08T10:23:50.926Z,-0.80
2023-02-08T10:28:57.833Z,-0.60
2023-02-08T10:40:37.717Z,-1.05
2023-02-08T10:45:40.164Z,-0.96
2023-02-08T10:50:39.418Z,-1.28
2023-02-08T10:55:42.129Z,-1.12
2023-02-08T11:00:40.621Z,-1.23
2023-02-08T11:05:38.584Z,-0.96
2023-02-08T11:10:35.756Z,-1.22
2023-02-08T11:15:37.318Z,-1.32
2023-02-08T11:20:37.053Z,-1.10
2023-02-08T11:25:35.990Z,-0.75
2023-02-08T11:31:17.540Z,-0.70
2023-02-08T11:36:15.700Z,-0.57
2023-02-08T11:47:25.244Z,-0.79
2023-02-08T11:52:24.903Z,-0.66
2023-02-08T11:57:27.745Z,-0.80
2023-02-08T12:02:35.740Z,-0.93
2023-02-08T12:07:44.596Z,-0.55
2023-02-08T12:12:46.782Z,-0.95
2023-02-08T12:17:53.334Z,-0.85
2023-02-08T12:22:56.301Z,-0.43
2023-02-08T12:27:59.242Z,-0.43
2023-02-08T12:33:11.248Z,-0.28
2023-02-08T12:38:26.983Z,0.06
2023-02-08T12:43:30.156Z,-0.25
2023-02-08T12:48:35.784Z,-0.03
2023-02-08T12:53:35.466Z,-0.29
2023-02-08T12:58:36.171Z,-0.46
2023-02-08T13:03:36.355Z,-0.23
2023-02-08T13:08:36.673Z,-0.52
2023-02-08T13:13:35.568Z,-0.40
2023-02-08T13:18:34.664Z,-0.36
2023-02-08T13:23:50.596Z,-0.41
2023-02-08T13:28:53.659Z,0.21
2023-02-08T13:34:01.384Z,-0.03
2023-02-08T13:39:08.224Z,-0.02
2023-02-08T13:50:23.956Z,0.21
2023-02-08T14:01:23.661Z,0.64
2023-02-08T14:06:23.757Z,0.23
2023-02-08T14:11:28.776Z,0.65
2023-02-08T14:16:30.900Z,0.16
2023-02-08T14:21:30.569Z,0.43
2023-02-08T14:26:30.153Z,0.27
2023-02-08T14:31:40.198Z,0.91
2023-02-08T14:36:37.249Z,1.13
2023-02-08T14:41:44.455Z,1.18
2023-02-08T14:46:43.352Z,1.33
2023-02-08T14:51:41.838Z,1.56
2023-02-08T14:56:49.312Z,1.18
2023-02-08T15:02:12.319Z,1.46
2023-02-08T15:07:31.264Z,1.23
2023-02-08T15:12:30.205Z,1.08
2023-02-08T15:17:32.020Z,0.96
2023-02-08T15:22:33.856Z,0.53
2023-02-08T15:27:33.555Z,1.16
2023-02-08T15:32:30.695Z,0.95
2023-02-08T15:37:30.580Z,0.86
2023-02-08T15:42:29.154Z,0.82
2023-02-08T15:47:27.762Z,0.81
2023-02-08T15:52:26.346Z,0.53
2023-02-08T15:57:31.797Z,0.61
2023-02-08T16:02:30.471Z,0.82
2023-02-08T16:07:28.483Z,0.66
2023-02-08T16:12:26.802Z,0.49
2023-02-08T16:17:31.253Z,0.76
2023-02-08T16:22:31.904Z,0.61
2023-02-08T16:27:30.516Z,0.28
2023-02-08T16:32:30.222Z,0.58
2023-02-08T16:37:29.470Z,0.87
2023-02-08T16:42:30.353Z,0.95
2023-02-08T16:47:28.156Z,0.98
2023-02-08T16:52:25.094Z,1.08
2023-02-08T16:57:22.649Z,1.10
2023-02-08T17:02:19.404Z,1.09
2023-02-08T17:07:22.282Z,1.00
2023-02-08T17:12:24.002Z,1.00
2023-02-08T17:17:23.593Z,1.15
2023-02-08T17:22:20.345Z,1.29
2023-02-08T17:27:17.392Z,1.40
2023-02-08T17:32:21.544Z,1.38
2023-02-08T17:37:19.207Z,1.32
2023-02-08T17:42:17.400Z,1.47
2023-02-08T17:47:14.265Z,1.38
2023-02-08T17:52:11.148Z,1.44
2023-02-08T17:57:11.297Z,1.43
2023-02-08T18:02:11.530Z,1.32
2023-02-08T18:07:08.244Z,1.45
2023-02-08T18:12:05.390Z,1.17
2023-02-08T18:17:06.916Z,1.35
2023-02-08T18:22:05.420Z,1.48
2023-02-08T18:27:02.281Z,1.61
2023-02-08T18:31:59.148Z,1.56
2023-02-08T18:36:56.799Z,1.30
2023-02-08T18:42:14.054Z,1.42
2023-02-08T18:47:10.725Z,1.56
2023-02-08T18:52:10.292Z,1.47
2023-02-08T18:57:09.234Z,1.14
2023-02-08T19:02:06.754Z,1.12
2023-02-08T19:07:06.963Z,1.18
2023-02-08T19:12:05.021Z,1.22
2023-02-08T19:17:02.115Z,1.48
2023-02-08T19:22:02.434Z,1.63
2023-02-08T19:27:02.840Z,1.84
2023-02-08T19:32:00.666Z,1.99
2023-02-08T19:36:57.381Z,2.10
2023-02-08T19:41:54.362Z,1.99
2023-02-08T19:46:52.359Z,1.55
2023-02-08T19:51:50.026Z,1.47
2023-02-08T19:56:49.980Z,0.74
2023-02-08T20:01:47.059Z,0.97
2023-02-08T20:06:44.417Z,1.33
2023-02-08T20:11:55.877Z,1.36
2023-02-08T20:16:53.350Z,1.68
2023-02-08T20:21:50.343Z,1.59
2023-02-08T20:26:48.114Z,0.95
2023-02-08T20:31:46.075Z,0.63
2023-02-08T20:36:47.582Z,0.23
2023-02-08T20:41:49.667Z,0.15
2023-02-08T20:46:46.715Z,0.17
2023-02-08T20:51:43.625Z,0.30
2023-02-08T20:56:40.954Z,0.74
2023-02-08T21:01:38.452Z,1.04
2023-02-08T21:06:36.314Z,0.85
2023-02-08T21:11:33.428Z,0.81
2023-02-08T21:16:30.590Z,0.60
2023-02-08T21:21:28.125Z,0.40
2023-02-08T21:26:25.234Z,0.54
2023-02-08T21:31:23.357Z,-0.28
2023-02-08T21:36:21.445Z,-0.15
2023-02-08T21:41:20.764Z,-0.04
2023-02-08T21:46:17.588Z,-0.41
2023-02-08T21:51:32.395Z,-0.28
2023-02-08T21:56:29.756Z,-0.27
2023-02-08T22:01:26.532Z,-0.25
2023-02-08T22:06:41.774Z,-0.46
2023-02-08T22:11:39.328Z,-0.95
2023-02-08T22:16:36.138Z,-1.09
2023-02-08T22:21:33.512Z,-1.26
2023-02-08T22:26:30.111Z,-1.29
2023-02-08T22:31:27.521Z,-1.04
2023-02-08T22:36:24.604Z,-0.99
2023-02-08T22:41:21.315Z,-1.04
2023-02-08T22:46:18.208Z,-0.62
2023-02-08T22:51:17.237Z,-1.10
2023-02-08T22:56:14.299Z,-1.22
2023-02-08T23:01:11.724Z,-1.04
2023-02-08T23:06:09.292Z,-1.02
2023-02-08T23:11:06.752Z,-0.87
2023-02-08T23:16:03.640Z,-0.89
2023-02-08T23:21:05.130Z,-0.86
2023-02-08T23:26:04.192Z,-1.08
2023-02-08T23:31:04.244Z,-1.34
2023-02-08T23:36:04.122Z,-1.23
2023-02-08T23:41:02.501Z,-1.06
2023-02-08T23:45:59.406Z,-0.51
2023-02-08T23:50:57.452Z,-0.74
2023-02-08T23:56:01.793Z,-0.22
